sensor_id;sensor_type;location;lat;lon;timestamp;pressure;altitude;pressure_sealevel;temperature;humidity
35758;BME280;21879;50.110;18.900;2023-05-21T00:06:37;99097.01;;;17.18;65.51
35758;BME280;21879;50.110;18.900;2023-05-21T00:17:03;99085.31;;;17.16;65.21
35758;BME280;21879;50.110;18.900;2023-05-21T00:27:29;99086.67;;;17.06;65.65
35758;BME280;21879;50.110;18.900;2023-05-21T00:37:55;99084.93;;;17.05;65.78
35758;BME280;21879;50.110;18.900;2023-05-21T00:48:21;99081.94;;;17.11;65.95
35758;BME280;21879;50.110;18.900;2023-05-21T00:58:48;99071.73;;;17.06;66.03
35758;BME280;21879;50.110;18.900;2023-05-21T01:09:15;99058.84;;;16.84;66.38
35758;BME280;21879;50.110;18.900;2023-05-21T01:19:42;99048.31;;;16.78;66.97
35758;BME280;21879;50.110;18.900;2023-05-21T01:30:11;99038.14;;;16.77;67.17
35758;BME280;21879;50.110;18.900;2023-05-21T01:40:42;99031.30;;;16.70;67.36
35758;BME280;21879;50.110;18.900;2023-05-21T01:51:10;99028.88;;;16.62;67.65
35758;BME280;21879;50.110;18.900;2023-05-21T02:01:37;99026.45;;;16.67;67.74
35758;BME280;21879;50.110;18.900;2023-05-21T02:12:03;99014.80;;;16.64;67.75
35758;BME280;21879;50.110;18.900;2023-05-21T02:22:29;99013.52;;;16.79;67.92
35758;BME280;21879;50.110;18.900;2023-05-21T02:32:55;99012.92;;;16.87;67.62
35758;BME280;21879;50.110;18.900;2023-05-21T02:43:23;99005.59;;;16.79;67.39
35758;BME280;21879;50.110;18.900;2023-05-21T02:53:48;99000.17;;;16.72;67.48
35758;BME280;21879;50.110;18.900;2023-05-21T03:04:14;98994.00;;;16.73;67.50
35758;BME280;21879;50.110;18.900;2023-05-21T03:14:42;99000.55;;;16.71;67.57
35758;BME280;21879;50.110;18.900;2023-05-21T03:25:11;98998.14;;;16.69;67.40
35758;BME280;21879;50.110;18.900;2023-05-21T03:35:37;98998.84;;;16.63;67.33
35758;BME280;21879;50.110;18.900;2023-05-21T03:46:03;98999.40;;;16.68;67.45
35758;BME280;21879;50.110;18.900;2023-05-21T03:56:29;98998.89;;;16.74;67.38
35758;BME280;21879;50.110;18.900;2023-05-21T04:06:56;98994.95;;;16.71;67.32
35758;BME280;21879;50.110;18.900;2023-05-21T04:17:23;99001.39;;;16.73;67.55
35758;BME280;21879;50.110;18.900;2023-05-21T04:27:49;98999.05;;;16.62;67.89
35758;BME280;21879;50.110;18.900;2023-05-21T04:38:16;99000.84;;;16.85;69.09
35758;BME280;21879;50.110;18.900;2023-05-21T04:48:42;99005.84;;;17.40;68.67
35758;BME280;21879;50.110;18.900;2023-05-21T04:59:08;99005.98;;;17.89;67.53
35758;BME280;21879;50.110;18.900;2023-05-21T05:09:35;99010.69;;;18.35;66.44
35758;BME280;21879;50.110;18.900;2023-05-21T05:20:02;99002.22;;;19.06;66.19
35758;BME280;21879;50.110;18.900;2023-05-21T05:30:28;98999.53;;;19.65;64.21
35758;BME280;21879;50.110;18.900;2023-05-21T05:40:54;98993.35;;;20.10;63.08
35758;BME280;21879;50.110;18.900;2023-05-21T05:51:20;98994.13;;;20.60;61.97
35758;BME280;21879;50.110;18.900;2023-05-21T06:01:46;98997.88;;;20.91;59.89
35758;BME280;21879;50.110;18.900;2023-05-21T06:12:12;98993.39;;;21.11;59.17
35758;BME280;21879;50.110;18.900;2023-05-21T06:22:39;98994.17;;;21.43;58.17
35758;BME280;21879;50.110;18.900;2023-05-21T06:33:05;98981.13;;;21.53;57.29
35758;BME280;21879;50.110;18.900;2023-05-21T06:43:31;98977.23;;;21.57;56.67
35758;BME280;21879;50.110;18.900;2023-05-21T06:53:57;98971.07;;;21.83;56.54
35758;BME280;21879;50.110;18.900;2023-05-21T07:04:23;98967.92;;;22.10;55.63
35758;BME280;21879;50.110;18.900;2023-05-21T07:14:49;98965.42;;;22.41;55.39
35758;BME280;21879;50.110;18.900;2023-05-21T07:25:15;98959.07;;;22.73;54.62
35758;BME280;21879;50.110;18.900;2023-05-21T07:35:41;98951.46;;;23.02;54.01
35758;BME280;21879;50.110;18.900;2023-05-21T07:46:06;98953.31;;;22.98;52.66
35758;BME280;21879;50.110;18.900;2023-05-21T07:56:32;98954.95;;;22.84;52.15
35758;BME280;21879;50.110;18.900;2023-05-21T08:06:58;98953.75;;;22.80;51.83
35758;BME280;21879;50.110;18.900;2023-05-21T08:17:24;98942.16;;;22.94;52.27
35758;BME280;21879;50.110;18.900;2023-05-21T08:27:52;98939.70;;;23.19;51.80
35758;BME280;21879;50.110;18.900;2023-05-21T08:38:17;98931.44;;;23.33;49.98
35758;BME280;21879;50.110;18.900;2023-05-21T08:48:42;98921.34;;;23.35;49.01
35758;BME280;21879;50.110;18.900;2023-05-21T08:59:09;98914.64;;;23.44;48.67
35758;BME280;21879;50.110;18.900;2023-05-21T09:09:38;98916.36;;;23.57;47.92
35758;BME280;21879;50.110;18.900;2023-05-21T09:20:11;98913.41;;;23.62;46.55
35758;BME280;21879;50.110;18.900;2023-05-21T09:30:44;98908.39;;;23.66;46.56
35758;BME280;21879;50.110;18.900;2023-05-21T09:41:11;98907.98;;;23.76;46.47
35758;BME280;21879;50.110;18.900;2023-05-21T09:51:37;98897.70;;;23.78;45.86
35758;BME280;21879;50.110;18.900;2023-05-21T10:02:03;98894.55;;;23.72;45.48
35758;BME280;21879;50.110;18.900;2023-05-21T10:12:42;98884.66;;;23.77;45.30
35758;BME280;21879;50.110;18.900;2023-05-21T10:23:10;98878.34;;;23.79;44.20
35758;BME280;21879;50.110;18.900;2023-05-21T10:33:38;98874.94;;;23.76;43.56
35758;BME280;21879;50.110;18.900;2023-05-21T10:44:13;98872.45;;;23.74;42.43
35758;BME280;21879;50.110;18.900;2023-05-21T10:54:51;98866.08;;;23.73;42.03
35758;BME280;21879;50.110;18.900;2023-05-21T11:16:07;98852.05;;;23.85;41.71
35758;BME280;21879;50.110;18.900;2023-05-21T11:26:59;98855.39;;;23.88;41.50
35758;BME280;21879;50.110;18.900;2023-05-21T11:37:34;98848.09;;;23.80;41.07
35758;BME280;21879;50.110;18.900;2023-05-21T11:48:04;98840.60;;;23.81;40.80
35758;BME280;21879;50.110;18.900;2023-05-21T11:58:32;98840.67;;;23.91;40.83
35758;BME280;21879;50.110;18.900;2023-05-21T12:08:58;98841.14;;;23.97;39.73
35758;BME280;21879;50.110;18.900;2023-05-21T12:19:23;98836.43;;;24.02;39.30
35758;BME280;21879;50.110;18.900;2023-05-21T12:29:50;98835.36;;;24.07;38.74
35758;BME280;21879;50.110;18.900;2023-05-21T12:40:17;98834.80;;;24.13;38.41
35758;BME280;21879;50.110;18.900;2023-05-21T12:50:44;98821.25;;;24.14;38.37
35758;BME280;21879;50.110;18.900;2023-05-21T13:01:11;98811.38;;;24.25;39.18
35758;BME280;21879;50.110;18.900;2023-05-21T13:11:37;98814.50;;;24.26;38.78
35758;BME280;21879;50.110;18.900;2023-05-21T13:22:03;98798.58;;;24.25;38.79
35758;BME280;21879;50.110;18.900;2023-05-21T13:32:28;98797.99;;;24.23;38.40
35758;BME280;21879;50.110;18.900;2023-05-21T13:42:53;98800.39;;;24.21;38.43
35758;BME280;21879;50.110;18.900;2023-05-21T13:53:18;98784.02;;;24.19;38.94
35758;BME280;21879;50.110;18.900;2023-05-21T14:03:44;98786.70;;;24.22;39.63
35758;BME280;21879;50.110;18.900;2023-05-21T14:14:11;98786.16;;;24.19;39.38
35758;BME280;21879;50.110;18.900;2023-05-21T14:24:42;98789.55;;;24.07;39.42
35758;BME280;21879;50.110;18.900;2023-05-21T14:35:08;98785.23;;;23.97;38.91
35758;BME280;21879;50.110;18.900;2023-05-21T14:45:52;98785.48;;;23.93;38.99
35758;BME280;21879;50.110;18.900;2023-05-21T14:56:18;98785.61;;;23.91;39.27
35758;BME280;21879;50.110;18.900;2023-05-21T15:06:47;98792.19;;;23.91;39.73
35758;BME280;21879;50.110;18.900;2023-05-21T15:17:11;98794.00;;;23.84;39.78
35758;BME280;21879;50.110;18.900;2023-05-21T15:27:37;98796.17;;;23.78;40.34
35758;BME280;21879;50.110;18.900;2023-05-21T15:38:03;98801.38;;;23.63;41.03
35758;BME280;21879;50.110;18.900;2023-05-21T15:48:29;98793.49;;;23.52;40.70
35758;BME280;21879;50.110;18.900;2023-05-21T15:58:55;98793.42;;;23.41;40.48
35758;BME280;21879;50.110;18.900;2023-05-21T16:09:23;98804.87;;;23.34;40.25
35758;BME280;21879;50.110;18.900;2023-05-21T16:19:49;98805.87;;;23.26;40.13
35758;BME280;21879;50.110;18.900;2023-05-21T16:30:15;98807.04;;;23.16;40.29
35758;BME280;21879;50.110;18.900;2023-05-21T16:40:42;98806.49;;;23.10;41.11
35758;BME280;21879;50.110;18.900;2023-05-21T16:51:27;98808.06;;;23.01;41.13
35758;BME280;21879;50.110;18.900;2023-05-21T17:01:53;98812.29;;;22.86;41.45
35758;BME280;21879;50.110;18.900;2023-05-21T17:12:20;98820.80;;;22.70;41.72
35758;BME280;21879;50.110;18.900;2023-05-21T17:22:46;98816.86;;;22.56;42.05
35758;BME280;21879;50.110;18.900;2023-05-21T17:33:12;98818.66;;;22.46;41.96
35758;BME280;21879;50.110;18.900;2023-05-21T17:43:38;98820.43;;;22.36;42.12
35758;BME280;21879;50.110;18.900;2023-05-21T17:54:04;98830.56;;;22.19;42.24
35758;BME280;21879;50.110;18.900;2023-05-21T18:04:31;98835.05;;;22.05;42.62
35758;BME280;21879;50.110;18.900;2023-05-21T18:14:57;98831.70;;;21.91;43.12
35758;BME280;21879;50.110;18.900;2023-05-21T18:25:22;98836.63;;;21.75;43.54
35758;BME280;21879;50.110;18.900;2023-05-21T18:35:48;98835.10;;;21.64;44.27
35758;BME280;21879;50.110;18.900;2023-05-21T18:46:14;98833.80;;;21.52;44.52
35758;BME280;21879;50.110;18.900;2023-05-21T18:56:40;98838.66;;;21.32;44.89
35758;BME280;21879;50.110;18.900;2023-05-21T19:07:06;98847.72;;;21.25;45.10
35758;BME280;21879;50.110;18.900;2023-05-21T19:17:32;98849.55;;;20.99;45.13
35758;BME280;21879;50.110;18.900;2023-05-21T19:28:00;98857.04;;;20.83;45.63
35758;BME280;21879;50.110;18.900;2023-05-21T19:38:26;98861.49;;;20.71;45.83
35758;BME280;21879;50.110;18.900;2023-05-21T19:48:53;98870.32;;;20.49;45.80
35758;BME280;21879;50.110;18.900;2023-05-21T19:59:18;98872.60;;;20.26;46.25
35758;BME280;21879;50.110;18.900;2023-05-21T20:09:45;98871.39;;;20.02;46.55
35758;BME280;21879;50.110;18.900;2023-05-21T20:20:12;98859.64;;;19.89;46.72
35758;BME280;21879;50.110;18.900;2023-05-21T20:30:53;98852.89;;;19.82;46.99
35758;BME280;21879;50.110;18.900;2023-05-21T20:41:20;98853.48;;;19.64;46.94
35758;BME280;21879;50.110;18.900;2023-05-21T20:51:49;98854.05;;;19.35;47.01
35758;BME280;21879;50.110;18.900;2023-05-21T21:02:17;98848.21;;;19.18;47.43
35758;BME280;21879;50.110;18.900;2023-05-21T21:12:43;98842.45;;;19.05;47.50
35758;BME280;21879;50.110;18.900;2023-05-21T21:23:09;98848.88;;;18.86;47.60
35758;BME280;21879;50.110;18.900;2023-05-21T21:33:34;98854.29;;;18.73;47.59
35758;BME280;21879;50.110;18.900;2023-05-21T21:44:01;98856.73;;;18.56;47.69
35758;BME280;21879;50.110;18.900;2023-05-21T21:54:27;98857.48;;;18.41;47.83
35758;BME280;21879;50.110;18.900;2023-05-21T22:04:53;98862.98;;;18.35;47.87
35758;BME280;21879;50.110;18.900;2023-05-21T22:15:21;98856.26;;;18.13;47.71
35758;BME280;21879;50.110;18.900;2023-05-21T22:25:48;98852.27;;;17.88;47.82
35758;BME280;21879;50.110;18.900;2023-05-21T22:36:14;98851.27;;;17.77;48.04
35758;BME280;21879;50.110;18.900;2023-05-21T22:46:40;98843.95;;;17.65;48.17
35758;BME280;21879;50.110;18.900;2023-05-21T22:57:07;98843.99;;;17.73;48.09
35758;BME280;21879;50.110;18.900;2023-05-21T23:07:33;98843.32;;;17.83;48.12
35758;BME280;21879;50.110;18.900;2023-05-21T23:17:58;98840.52;;;17.57;47.68
35758;BME280;21879;50.110;18.900;2023-05-21T23:28:27;98834.02;;;17.12;48.21
35758;BME280;21879;50.110;18.900;2023-05-21T23:38:53;98828.70;;;17.13;48.78
35758;BME280;21879;50.110;18.900;2023-05-21T23:49:19;98828.42;;;17.05;48.55
35758;BME280;21879;50.110;18.900;2023-05-21T23:59:45;98828.34;;;16.70;48.88
